createdAt,value
2022-10-19T00:01:53.192Z,5.35
2022-10-19T00:04:23.315Z,5.29
2022-10-19T00:06:53.220Z,5.25
2022-10-19T00:09:23.019Z,5.19
2022-10-19T00:11:53.124Z,5.17
2022-10-19T00:14:25.941Z,5.15
2022-10-19T00:16:58.844Z,5.13
2022-10-19T00:19:29.474Z,5.15
2022-10-19T00:21:58.242Z,5.10
2022-10-19T00:24:29.530Z,4.99
2022-10-19T00:26:59.557Z,4.91
2022-10-19T00:29:28.937Z,4.84
2022-10-19T00:31:58.075Z,4.79
2022-10-19T00:34:28.951Z,4.76
2022-10-19T00:36:59.894Z,4.75
2022-10-19T00:39:28.948Z,4.76
2022-10-19T00:41:59.207Z,4.75
2022-10-19T00:44:30.635Z,4.71
2022-10-19T00:47:06.902Z,4.69
2022-10-19T00:49:46.343Z,4.68
2022-10-19T00:52:21.507Z,4.71
2022-10-19T00:54:52.974Z,4.65
2022-10-19T00:57:24.063Z,4.56
2022-10-19T00:59:56.097Z,4.46
2022-10-19T01:02:27.451Z,4.37
2022-10-19T01:04:57.541Z,4.28
2022-10-19T01:07:28.845Z,4.25
2022-10-19T01:10:01.222Z,4.26
2022-10-19T01:12:50.234Z,4.28
2022-10-19T01:15:39.691Z,4.30
2022-10-19T01:18:40.965Z,4.30
2022-10-19T01:21:23.568Z,4.28
2022-10-19T01:24:39.822Z,4.26
2022-10-19T01:27:17.205Z,4.22
2022-10-19T01:30:06.954Z,4.19
2022-10-19T01:32:56.696Z,4.14
2022-10-19T01:36:01.001Z,4.08
2022-10-19T01:38:42.593Z,4.01
2022-10-19T01:41:30.086Z,3.96
2022-10-19T01:44:03.846Z,3.97
2022-10-19T01:46:47.378Z,3.97
2022-10-19T01:49:48.944Z,3.98
2022-10-19T01:52:22.684Z,3.98
2022-10-19T01:54:57.429Z,3.97
2022-10-19T01:57:37.927Z,3.94
2022-10-19T02:00:11.342Z,3.92
2022-10-19T02:02:51.668Z,3.86
2022-10-19T02:05:27.371Z,3.82
2022-10-19T02:08:01.709Z,3.79
2022-10-19T02:10:34.813Z,3.78
2022-10-19T02:13:06.686Z,3.78
2022-10-19T02:15:40.380Z,3.80
2022-10-19T02:18:13.906Z,3.81
2022-10-19T02:20:43.850Z,3.81
2022-10-19T02:23:15.618Z,3.81
2022-10-19T02:25:44.724Z,3.79
2022-10-19T02:28:16.153Z,3.76
2022-10-19T02:30:45.852Z,3.75
2022-10-19T02:33:14.892Z,3.72
2022-10-19T02:35:45.574Z,3.70
2022-10-19T02:38:19.400Z,3.67
2022-10-19T02:41:13.142Z,3.64
2022-10-19T02:43:46.669Z,3.61
2022-10-19T02:46:28.666Z,3.61
2022-10-19T02:49:00.251Z,3.60
2022-10-19T02:51:33.372Z,3.60
2022-10-19T02:54:05.192Z,3.61
2022-10-19T02:56:35.731Z,3.61
2022-10-19T02:59:05.583Z,3.60
2022-10-19T03:01:34.847Z,3.56
2022-10-19T03:04:05.678Z,3.54
2022-10-19T03:06:35.209Z,3.51
2022-10-19T03:09:04.776Z,3.48
2022-10-19T03:11:34.135Z,3.44
2022-10-19T03:14:03.290Z,3.40
2022-10-19T03:16:32.603Z,3.36
2022-10-19T03:19:01.568Z,3.34
2022-10-19T03:21:30.873Z,3.29
2022-10-19T03:24:01.698Z,3.25
2022-10-19T03:26:31.576Z,3.23
2022-10-19T03:29:01.362Z,3.21
2022-10-19T03:31:30.506Z,3.20
2022-10-19T03:34:01.245Z,3.18
2022-10-19T03:36:32.014Z,3.16
2022-10-19T03:39:03.987Z,3.15
2022-10-19T03:41:36.071Z,3.17
2022-10-19T03:44:07.908Z,3.18
2022-10-19T03:46:38.301Z,3.18
2022-10-19T03:49:07.769Z,3.16
2022-10-19T03:51:36.612Z,3.12
2022-10-19T03:54:07.857Z,3.07
2022-10-19T03:56:37.115Z,3.04
2022-10-19T03:59:08.120Z,3.03
2022-10-19T04:01:40.263Z,3.03
2022-10-19T04:04:16.267Z,3.03
2022-10-19T04:06:47.484Z,3.01
2022-10-19T04:09:19.382Z,3.02
2022-10-19T04:11:49.434Z,3.03
2022-10-19T04:14:31.811Z,3.06
2022-10-19T04:17:03.197Z,3.12
2022-10-19T04:19:32.446Z,3.17
2022-10-19T04:22:01.256Z,3.17
2022-10-19T04:24:30.144Z,3.19
2022-10-19T04:26:59.088Z,3.20
2022-10-19T04:29:29.818Z,3.23
2022-10-19T04:32:00.008Z,3.25
2022-10-19T04:34:28.587Z,3.29
2022-10-19T04:36:59.722Z,3.34
2022-10-19T04:39:28.403Z,3.39
2022-10-19T04:41:57.344Z,3.43
2022-10-19T04:44:26.639Z,3.47
2022-10-19T04:46:55.715Z,3.50
2022-10-19T04:49:25.259Z,3.50
2022-10-19T04:51:54.760Z,3.49
2022-10-19T04:54:23.572Z,3.48
2022-10-19T04:56:54.083Z,3.46
2022-10-19T04:59:22.725Z,3.43
2022-10-19T05:01:52.935Z,3.41
2022-10-19T05:04:21.726Z,3.40
2022-10-19T05:06:50.873Z,3.41
2022-10-19T05:09:19.560Z,3.43
2022-10-19T05:11:51.006Z,3.45
2022-10-19T05:14:20.395Z,3.48
2022-10-19T05:16:49.470Z,3.51
2022-10-19T05:19:18.658Z,3.53
2022-10-19T05:21:47.239Z,3.57
2022-10-19T05:24:16.640Z,3.61
2022-10-19T05:26:45.838Z,3.69
2022-10-19T05:29:14.489Z,3.79
2022-10-19T05:31:43.485Z,3.92
2022-10-19T05:34:12.065Z,4.07
2022-10-19T05:36:41.150Z,4.22
2022-10-19T05:39:14.296Z,4.35
2022-10-19T05:41:47.389Z,4.47
2022-10-19T05:44:21.952Z,4.53
2022-10-19T05:46:52.050Z,4.58
2022-10-19T05:49:22.756Z,4.60
2022-10-19T05:51:51.598Z,4.57
2022-10-19T05:54:22.690Z,4.57
2022-10-19T05:56:53.727Z,4.59
2022-10-19T05:59:22.400Z,4.63
2022-10-19T06:01:50.901Z,4.65
2022-10-19T06:04:19.649Z,4.63
2022-10-19T06:06:48.434Z,4.66
2022-10-19T06:09:17.034Z,4.68
2022-10-19T06:11:45.672Z,4.75
2022-10-19T06:14:16.418Z,4.93
2022-10-19T06:16:46.396Z,5.25
2022-10-19T06:19:15.369Z,5.56
2022-10-19T06:21:47.298Z,5.91
2022-10-19T06:24:19.723Z,6.23
2022-10-19T06:26:51.109Z,6.67
2022-10-19T06:29:19.832Z,6.96
2022-10-19T06:31:48.725Z,7.28
2022-10-19T06:34:17.595Z,7.71
2022-10-19T06:36:46.509Z,8.07
2022-10-19T06:39:15.297Z,8.41
2022-10-19T06:41:44.194Z,8.81
2022-10-19T06:44:30.961Z,9.12
2022-10-19T06:46:59.982Z,9.21
2022-10-19T06:49:29.307Z,9.39
2022-10-19T06:51:58.182Z,9.61
2022-10-19T06:54:26.830Z,9.90
2022-10-19T06:56:55.448Z,10.17
2022-10-19T06:59:23.933Z,10.33
2022-10-19T07:01:53.116Z,10.55
2022-10-19T07:04:21.628Z,10.79
2022-10-19T07:06:51.520Z,10.78
2022-10-19T07:09:20.506Z,10.85
2022-10-19T07:11:49.647Z,10.88
2022-10-19T07:14:18.509Z,11.13
2022-10-19T07:16:47.080Z,11.58
2022-10-19T07:19:15.766Z,11.94
2022-10-19T07:21:45.368Z,12.18
2022-10-19T07:24:14.570Z,12.81
2022-10-19T07:26:43.261Z,12.93
2022-10-19T07:29:12.241Z,13.14
2022-10-19T07:31:41.640Z,13.71
2022-10-19T07:34:14.808Z,13.79
2022-10-19T07:36:48.332Z,13.87
2022-10-19T07:39:17.938Z,13.80
2022-10-19T07:41:47.137Z,13.90
2022-10-19T07:44:16.134Z,14.45
2022-10-19T07:46:44.922Z,14.97
2022-10-19T07:49:17.045Z,15.02
2022-10-19T07:51:47.156Z,15.05
2022-10-19T07:54:15.791Z,15.10
2022-10-19T07:56:44.693Z,14.94
2022-10-19T07:59:15.367Z,15.18
2022-10-19T08:01:45.386Z,14.96
2022-10-19T08:04:49.010Z,15.40
2022-10-19T08:07:05.554Z,15.83
2022-10-19T08:09:52.090Z,16.37
2022-10-19T08:12:28.812Z,16.73
2022-10-19T08:14:57.498Z,16.64
2022-10-19T08:17:26.296Z,16.61
2022-10-19T08:19:55.284Z,16.76
2022-10-19T08:22:23.975Z,16.95
2022-10-19T08:24:52.546Z,16.95
2022-10-19T08:27:20.922Z,17.06
2022-10-19T08:29:52.175Z,17.25
2022-10-19T08:32:21.277Z,16.91
2022-10-19T08:34:49.955Z,17.05
2022-10-19T08:37:26.369Z,17.46
2022-10-19T08:40:18.952Z,17.24
2022-10-19T08:43:06.699Z,18.09
2022-10-19T08:46:01.902Z,18.46
2022-10-19T08:48:37.561Z,18.25
2022-10-19T08:51:09.480Z,17.83
2022-10-19T08:53:51.649Z,17.75
2022-10-19T08:56:52.114Z,17.71
2022-10-19T08:59:45.209Z,17.72
2022-10-19T09:02:39.806Z,17.49
2022-10-19T09:05:24.360Z,17.68
2022-10-19T09:07:55.095Z,17.89
2022-10-19T09:10:36.011Z,18.21
2022-10-19T09:13:41.754Z,19.35
2022-10-19T09:16:28.421Z,20.42
2022-10-19T09:18:57.111Z,20.80
2022-10-19T09:21:47.047Z,20.95
2022-10-19T09:24:30.102Z,20.34
2022-10-19T09:27:01.159Z,19.60
2022-10-19T09:29:45.004Z,18.80
2022-10-19T09:32:19.019Z,17.82
2022-10-19T09:34:57.289Z,17.56
2022-10-19T09:37:26.985Z,17.32
2022-10-19T09:39:56.736Z,17.19
2022-10-19T09:42:35.545Z,16.91
2022-10-19T09:45:20.425Z,16.56
2022-10-19T09:47:51.058Z,16.28
2022-10-19T09:50:22.795Z,15.73
2022-10-19T09:53:05.621Z,15.26
2022-10-19T09:55:39.316Z,14.78
2022-10-19T09:58:16.105Z,14.59
2022-10-19T10:00:47.926Z,14.40
2022-10-19T10:03:39.792Z,14.27
2022-10-19T10:06:18.316Z,14.17
2022-10-19T10:08:50.139Z,14.04
2022-10-19T10:11:29.408Z,14.01
2022-10-19T10:14:05.025Z,13.98
2022-10-19T10:16:38.352Z,13.76
2022-10-19T10:19:12.265Z,13.74
2022-10-19T10:21:55.952Z,13.78
2022-10-19T10:24:27.718Z,13.96
2022-10-19T10:27:02.225Z,14.27
2022-10-19T10:29:35.975Z,14.62
2022-10-19T10:32:19.386Z,14.89
2022-10-19T10:35:17.075Z,14.96
2022-10-19T10:37:47.530Z,14.93
2022-10-19T10:40:27.909Z,15.09
2022-10-19T10:43:07.499Z,15.38
2022-10-19T10:45:44.376Z,15.52
2022-10-19T10:48:39.658Z,15.53
2022-10-19T10:51:41.656Z,15.40
2022-10-19T10:54:30.717Z,15.30
2022-10-19T10:57:19.304Z,15.30
2022-10-19T11:00:12.533Z,15.21
2022-10-19T11:03:08.258Z,15.09
2022-10-19T11:05:42.838Z,14.92
2022-10-19T11:08:36.508Z,14.94
2022-10-19T11:11:11.376Z,14.94
2022-10-19T11:13:45.490Z,15.00
2022-10-19T11:16:19.886Z,14.99
2022-10-19T11:18:54.117Z,14.99
2022-10-19T11:21:34.688Z,15.08
2022-10-19T11:24:35.627Z,15.17
2022-10-19T11:27:18.861Z,15.21
2022-10-19T11:29:56.246Z,15.17
2022-10-19T11:33:03.536Z,15.16
2022-10-19T11:35:40.620Z,15.00
2022-10-19T11:38:33.674Z,15.18
2022-10-19T11:41:34.726Z,15.26
2022-10-19T11:44:30.745Z,15.31
2022-10-19T11:47:29.663Z,15.24
2022-10-19T11:50:04.396Z,15.24
2022-10-19T11:53:12.780Z,15.29
2022-10-19T11:55:47.092Z,15.39
2022-10-19T11:58:32.334Z,15.43
2022-10-19T12:01:17.395Z,15.64
2022-10-19T12:04:11.525Z,15.98
2022-10-19T12:06:50.455Z,16.37
2022-10-19T12:09:50.269Z,16.72
2022-10-19T12:12:31.234Z,17.01
2022-10-19T12:15:21.021Z,17.07
2022-10-19T12:17:53.113Z,17.09
2022-10-19T12:20:43.688Z,17.18
2022-10-19T12:23:28.861Z,17.27
2022-10-19T12:26:00.541Z,17.35
2022-10-19T12:28:32.792Z,17.31
2022-10-19T12:31:03.312Z,17.26
2022-10-19T12:33:38.318Z,17.23
2022-10-19T12:36:34.622Z,17.22
2022-10-19T12:39:18.309Z,17.29
2022-10-19T12:41:52.835Z,17.38
2022-10-19T12:44:27.356Z,17.40
2022-10-19T12:47:20.513Z,17.41
2022-10-19T12:49:51.142Z,17.40
2022-10-19T12:52:41.715Z,17.55
2022-10-19T12:55:27.023Z,17.73
2022-10-19T12:58:06.745Z,17.27
2022-10-19T13:00:38.114Z,17.19
2022-10-19T13:03:08.957Z,17.18
2022-10-19T13:05:37.712Z,17.17
2022-10-19T13:08:10.697Z,16.93
2022-10-19T13:11:02.249Z,16.79
2022-10-19T13:13:58.173Z,16.63
2022-10-19T13:16:39.555Z,16.17
2022-10-19T13:19:14.080Z,16.32
2022-10-19T13:22:02.425Z,16.51
2022-10-19T13:24:34.862Z,16.48
2022-10-19T13:27:03.487Z,16.65
2022-10-19T13:29:40.867Z,17.00
2022-10-19T13:32:38.103Z,17.32
2022-10-19T13:35:36.816Z,17.35
2022-10-19T13:38:17.680Z,17.37
2022-10-19T13:40:49.072Z,17.26
2022-10-19T13:43:38.915Z,17.13
2022-10-19T13:46:30.333Z,16.92
2022-10-19T13:49:01.886Z,16.71
2022-10-19T13:51:52.178Z,16.55
2022-10-19T13:54:39.156Z,16.34
2022-10-19T13:57:26.416Z,16.12
2022-10-19T14:00:21.853Z,15.94
2022-10-19T14:02:53.486Z,15.69
2022-10-19T14:05:31.324Z,15.53
2022-10-19T14:08:17.826Z,15.38
2022-10-19T14:11:01.020Z,15.22
2022-10-19T14:13:30.821Z,15.11
2022-10-19T14:16:03.203Z,15.00
2022-10-19T14:18:34.790Z,14.88
2022-10-19T14:21:06.559Z,14.79
2022-10-19T14:23:38.320Z,14.70
2022-10-19T14:26:15.144Z,14.65
2022-10-19T14:28:44.146Z,14.58
2022-10-19T14:31:20.800Z,14.47
2022-10-19T14:34:01.467Z,14.36
2022-10-19T14:36:44.489Z,14.25
2022-10-19T14:39:30.787Z,14.17
2022-10-19T14:42:07.152Z,14.11
2022-10-19T14:44:40.650Z,14.06
2022-10-19T14:47:27.464Z,14.01
2022-10-19T14:49:56.148Z,13.96
2022-10-19T14:52:34.055Z,13.90
2022-10-19T14:55:12.758Z,13.84
2022-10-19T14:57:47.913Z,13.78
2022-10-19T15:00:22.471Z,13.74
2022-10-19T15:03:02.068Z,13.71
2022-10-19T15:05:35.160Z,13.67
2022-10-19T15:08:19.222Z,13.63
2022-10-19T15:10:49.429Z,13.58
2022-10-19T15:13:29.481Z,13.53
2022-10-19T15:15:58.164Z,13.45
2022-10-19T15:18:48.947Z,13.38
2022-10-19T15:21:21.872Z,13.28
2022-10-19T15:23:52.660Z,13.20
2022-10-19T15:26:27.004Z,13.13
2022-10-19T15:29:08.394Z,13.02
2022-10-19T15:31:36.969Z,12.93
2022-10-19T15:34:05.669Z,12.86
2022-10-19T15:36:35.370Z,12.81
2022-10-19T15:39:18.438Z,12.73
2022-10-19T15:41:54.547Z,12.65
2022-10-19T15:44:49.649Z,12.56
2022-10-19T15:47:21.987Z,12.44
2022-10-19T15:50:01.756Z,12.36
2022-10-19T15:52:34.347Z,12.30
2022-10-19T15:55:03.644Z,12.22
2022-10-19T15:57:36.898Z,12.13
2022-10-19T16:00:17.136Z,12.04
2022-10-19T16:02:45.476Z,11.96
2022-10-19T16:05:13.953Z,11.87
2022-10-19T16:07:42.642Z,11.78
2022-10-19T16:10:21.055Z,11.70
2022-10-19T16:12:49.960Z,11.63
2022-10-19T16:15:24.466Z,11.57
2022-10-19T16:17:59.259Z,11.52
2022-10-19T16:20:30.033Z,11.47
2022-10-19T16:22:59.019Z,11.44
2022-10-19T16:25:27.507Z,11.41
2022-10-19T16:27:56.087Z,11.37
2022-10-19T16:30:24.768Z,11.32
2022-10-19T16:32:53.258Z,11.28
2022-10-19T16:35:21.765Z,11.24
2022-10-19T16:37:50.210Z,11.20
2022-10-19T16:40:18.897Z,11.17
2022-10-19T16:42:47.581Z,11.16
2022-10-19T16:45:16.267Z,11.15
2022-10-19T16:47:45.673Z,11.13
2022-10-19T16:50:14.048Z,11.11
2022-10-19T16:52:42.426Z,11.07
2022-10-19T16:55:11.545Z,11.04
2022-10-19T16:57:40.310Z,11.02
2022-10-19T17:00:10.330Z,11.02
2022-10-19T17:02:41.844Z,10.99
2022-10-19T17:05:12.918Z,10.97
2022-10-19T17:07:41.402Z,10.93
2022-10-19T17:10:10.378Z,10.90
2022-10-19T17:12:43.235Z,10.88
2022-10-19T17:15:41.065Z,10.88
2022-10-19T17:18:00.103Z,10.92
2022-10-19T17:20:28.479Z,10.98
2022-10-19T17:22:56.961Z,11.02
2022-10-19T17:25:25.752Z,11.05
2022-10-19T17:27:54.228Z,11.10
2022-10-19T17:30:22.815Z,11.16
2022-10-19T17:32:51.196Z,11.20
2022-10-19T17:35:19.504Z,11.24
2022-10-19T17:37:47.954Z,11.23
2022-10-19T17:40:16.946Z,11.30
2022-10-19T17:42:45.430Z,11.35
2022-10-19T17:45:13.917Z,11.39
2022-10-19T17:47:42.281Z,11.40
2022-10-19T17:50:10.863Z,11.41
2022-10-19T17:52:39.266Z,11.40
2022-10-19T17:55:13.357Z,11.42
2022-10-19T17:57:42.244Z,11.43
2022-10-19T18:00:11.759Z,11.44
2022-10-19T18:02:47.185Z,11.45
2022-10-19T18:05:15.830Z,11.49
2022-10-19T18:07:44.671Z,11.49
2022-10-19T18:10:14.890Z,11.45
2022-10-19T18:12:43.267Z,11.45
2022-10-19T18:15:11.646Z,11.43
2022-10-19T18:17:40.227Z,11.47
2022-10-19T18:20:09.732Z,11.48
2022-10-19T18:22:38.225Z,11.50
2022-10-19T18:25:09.457Z,11.52
2022-10-19T18:27:38.183Z,11.52
2022-10-19T18:30:07.141Z,11.52
2022-10-19T18:32:36.549Z,11.50
2022-10-19T18:35:05.646Z,11.47
2022-10-19T18:37:34.016Z,11.45
2022-10-19T18:40:02.496Z,11.44
2022-10-19T18:42:31.312Z,11.40
2022-10-19T18:44:59.774Z,11.36
2022-10-19T18:47:30.226Z,11.31
2022-10-19T18:49:58.788Z,11.27
2022-10-19T18:52:27.256Z,11.25
2022-10-19T18:54:55.633Z,11.23
2022-10-19T18:57:27.181Z,11.21
2022-10-19T18:59:58.737Z,11.18
2022-10-19T19:02:34.910Z,11.15
2022-10-19T19:05:11.802Z,11.13
2022-10-19T19:07:40.330Z,11.11
2022-10-19T19:10:09.146Z,11.10
2022-10-19T19:12:37.800Z,11.09
2022-10-19T19:15:08.817Z,11.07
2022-10-19T19:17:38.589Z,11.06
2022-10-19T19:20:07.984Z,11.02
2022-10-19T19:22:37.230Z,11.02
2022-10-19T19:25:06.813Z,11.02
2022-10-19T19:27:35.296Z,11.03
2022-10-19T19:30:04.983Z,11.04
2022-10-19T19:32:35.047Z,11.04
2022-10-19T19:35:04.281Z,11.05
2022-10-19T19:37:33.041Z,11.05
2022-10-19T19:40:01.868Z,11.05
2022-10-19T19:42:30.456Z,11.01
2022-10-19T19:44:59.044Z,11.00
2022-10-19T19:47:27.522Z,10.98
2022-10-19T19:49:56.006Z,10.94
2022-10-19T19:52:24.584Z,10.91
2022-10-19T19:54:54.449Z,10.89
2022-10-19T19:57:23.292Z,10.88
2022-10-19T19:59:51.775Z,10.88
2022-10-19T20:02:21.475Z,10.85
2022-10-19T20:04:49.962Z,10.81
2022-10-19T20:07:18.542Z,10.80
2022-10-19T20:09:47.332Z,10.78
2022-10-19T20:12:15.795Z,10.77
2022-10-19T20:14:44.289Z,10.74
2022-10-19T20:17:12.571Z,10.74
2022-10-19T20:19:41.826Z,10.71
2022-10-19T20:22:10.295Z,10.70
2022-10-19T20:24:39.034Z,10.69
2022-10-19T20:27:07.642Z,10.68
2022-10-19T20:29:36.404Z,10.68
2022-10-19T20:32:05.187Z,10.69
2022-10-19T20:34:36.319Z,10.68
2022-10-19T20:37:05.026Z,10.67
2022-10-19T20:39:33.671Z,10.65
2022-10-19T20:42:02.162Z,10.64
2022-10-19T20:44:31.077Z,10.61
2022-10-19T20:46:59.559Z,10.60
2022-10-19T20:49:28.550Z,10.60
2022-10-19T20:51:57.442Z,10.56
2022-10-19T20:54:25.973Z,10.53
2022-10-19T20:56:54.940Z,10.52
2022-10-19T20:59:31.787Z,10.49
2022-10-19T21:02:00.460Z,10.49
2022-10-19T21:04:29.477Z,10.42
2022-10-19T21:07:15.676Z,10.38
2022-10-19T21:09:44.257Z,10.35
2022-10-19T21:12:12.943Z,10.33
2022-10-19T21:14:41.530Z,10.31
2022-10-19T21:17:10.303Z,10.28
2022-10-19T21:19:38.787Z,10.25
2022-10-19T21:22:08.791Z,10.23
2022-10-19T21:24:37.181Z,10.20
2022-10-19T21:27:09.384Z,10.14
2022-10-19T21:29:38.550Z,10.10
2022-10-19T21:32:07.647Z,10.05
2022-10-19T21:34:36.431Z,10.03
2022-10-19T21:37:05.120Z,10.00
2022-10-19T21:39:33.985Z,9.95
2022-10-19T21:42:02.904Z,9.88
2022-10-19T21:44:31.478Z,9.84
2022-10-19T21:47:00.371Z,9.79
2022-10-19T21:49:28.970Z,9.72
2022-10-19T21:51:57.906Z,9.62
2022-10-19T21:54:26.635Z,9.56
2022-10-19T21:57:00.693Z,9.48
2022-10-19T21:59:29.570Z,9.40
2022-10-19T22:02:00.391Z,9.29
2022-10-19T22:04:29.591Z,9.22
2022-10-19T22:07:00.228Z,9.16
2022-10-19T22:09:29.086Z,9.09
2022-10-19T22:11:57.679Z,9.05
2022-10-19T22:14:27.819Z,9.00
2022-10-19T22:16:56.799Z,8.95
2022-10-19T22:19:26.937Z,8.86
2022-10-19T22:21:57.656Z,8.81
2022-10-19T22:24:26.677Z,8.78
2022-10-19T22:26:55.837Z,8.74
2022-10-19T22:29:25.647Z,8.71
2022-10-19T22:31:55.865Z,8.67
2022-10-19T22:34:25.680Z,8.63
2022-10-19T22:36:55.099Z,8.59
2022-10-19T22:39:27.751Z,8.54
2022-10-19T22:41:58.420Z,8.47
2022-10-19T22:44:27.294Z,8.44
2022-10-19T22:46:57.603Z,8.42
2022-10-19T22:49:27.005Z,8.40
2022-10-19T22:51:56.546Z,8.36
2022-10-19T22:54:26.133Z,8.33
2022-10-19T22:56:55.834Z,8.32
2022-10-19T22:59:25.536Z,8.29
2022-10-19T23:01:54.796Z,8.24
2022-10-19T23:04:25.805Z,8.19
2022-10-19T23:06:56.450Z,8.11
2022-10-19T23:09:26.435Z,8.05
2022-10-19T23:11:56.348Z,7.98
2022-10-19T23:14:25.865Z,7.94
2022-10-19T23:16:56.290Z,7.90
2022-10-19T23:19:26.745Z,7.85
2022-10-19T23:21:56.061Z,7.84
2022-10-19T23:24:25.404Z,7.77
2022-10-19T23:26:55.509Z,7.73
2022-10-19T23:29:25.936Z,7.66
2022-10-19T23:31:55.980Z,7.59
2022-10-19T23:34:26.530Z,7.50
2022-10-19T23:36:56.888Z,7.43
2022-10-19T23:39:26.329Z,7.36
2022-10-19T23:41:56.053Z,7.30
2022-10-19T23:44:25.565Z,7.26
2022-10-19T23:46:55.442Z,7.18
2022-10-19T23:49:25.118Z,7.11
2022-10-19T23:51:55.177Z,7.05
2022-10-19T23:54:26.030Z,6.99
2022-10-19T23:56:55.810Z,6.93
2022-10-19T23:59:25.127Z,6.86
